Startpagina
METAR-TAF:

METAR-TAF

Vliegvelden :

Flughafen Mönchengladbach

Mönchengladbach, Duitsland

breedte: 51-13-49N, lengte: 006-30-16E, hoogte: 38 m

Actueel weer

Dit bericht is 28 minuten geleden gemaakt, om 06:50 UTC
Wind 5 kt uit het noordwesten
Temperatuur 5°C
Vochtigheid 100%
Druk 1030 hPa
Zicht: 2000 m
nevel

METAR: EDLN 200650Z 31005KT 2000 BR NSC 05/05 Q1030

Tijdstip: 09:18 (07:18 UTC)

Verwachting

Dit bericht is 58 minuten geleden gemaakt, om 06:20 UTC
Verwachting geldig van 20 om 07 UTC tot 20 om 15 UTC
Wind 3 kt uit variabele richting
Zicht: 3000 m
nevel
Wijzigt naar
van 20 om 07 UTC tot 20 om 09 UTC
Zicht 10 km of meer
geen wolken onder 1500 m en geen cumulonimbus

TAF: EDLN 200620Z 2007/2015 VRB03KT 3000 BR NSC BECMG 2007/2009 CAVOK

Waarnemingen en weersverwachtingen van meer dan 4000 vliegvelden (METAR en TAF).

De beschikbare stations zijn de gele en rode punten op de kaart.

Ga met uw muis naar het station om de naam te zien.

Klik dan om waarnemingen en weersverwachtingen te zien.

kaart wijzigen: klik op de groene knoppen met een zwart kruis om in te zoomen, op de groene knop met een streepje om uit te zoomen of op de groene pijlen voor aangrenzende kaarten.


METAR-TAF: